createdAt,value
2018-08-31T00:01:40.490Z,11.00
2018-08-31T00:04:37.149Z,10.33
2018-08-31T00:07:20.551Z,11.23
2018-08-31T00:12:08.921Z,11.40
2018-08-31T00:14:40.990Z,11.00
2018-08-31T00:17:13.447Z,10.60
2018-08-31T00:19:45.519Z,10.60
2018-08-31T00:22:17.572Z,11.63
2018-08-31T00:25:02.761Z,13.30
2018-08-31T00:27:46.313Z,11.27
2018-08-31T00:30:29.976Z,11.67
2018-08-31T00:33:15.244Z,13.17
2018-08-31T00:40:10.845Z,13.03
2018-08-31T00:45:01.223Z,13.97
2018-08-31T00:47:33.231Z,12.37
2018-08-31T00:50:05.343Z,10.57
2018-08-31T00:52:37.407Z,11.60
2018-08-31T00:55:09.484Z,11.43
2018-08-31T00:57:41.508Z,11.70
2018-08-31T01:00:13.658Z,10.90
2018-08-31T01:02:45.880Z,11.80
2018-08-31T01:05:18.268Z,15.03
2018-08-31T01:07:50.323Z,17.23
2018-08-31T01:10:23.533Z,12.70
2018-08-31T01:12:55.614Z,12.00
2018-08-31T01:15:27.731Z,12.30
2018-08-31T01:17:59.802Z,11.20
2018-08-31T01:20:31.907Z,11.60
2018-08-31T01:23:03.955Z,9.63
2018-08-31T01:25:36.119Z,12.33
2018-08-31T01:28:08.163Z,13.90
2018-08-31T01:30:40.232Z,14.47
2018-08-31T01:33:12.299Z,12.50
2018-08-31T01:35:44.403Z,11.50
2018-08-31T01:38:16.464Z,14.60
2018-08-31T01:40:48.514Z,12.63
2018-08-31T01:43:20.607Z,13.40
2018-08-31T01:45:52.683Z,9.63
2018-08-31T01:48:24.738Z,9.50
2018-08-31T01:51:02.454Z,10.80
2018-08-31T01:53:34.493Z,11.37
2018-08-31T01:56:06.554Z,11.33
2018-08-31T01:58:38.621Z,10.43
2018-08-31T02:01:10.791Z,11.03
2018-08-31T02:03:42.905Z,11.47
2018-08-31T02:06:15.006Z,11.10
2018-08-31T02:08:52.669Z,12.80
2018-08-31T02:11:24.741Z,11.37
2018-08-31T02:13:56.810Z,11.53
2018-08-31T02:16:28.925Z,12.10
2018-08-31T02:19:00.939Z,12.47
2018-08-31T02:21:33.043Z,10.63
2018-08-31T02:24:05.167Z,11.90
2018-08-31T02:26:37.226Z,13.80
2018-08-31T02:29:09.752Z,14.83
2018-08-31T02:31:41.775Z,12.87
2018-08-31T02:34:13.840Z,11.77
2018-08-31T02:36:45.906Z,12.03
2018-08-31T02:39:18.092Z,12.97
2018-08-31T02:41:50.036Z,12.13
2018-08-31T02:44:22.071Z,14.10
2018-08-31T02:46:54.172Z,11.60
2018-08-31T02:49:26.236Z,13.30
2018-08-31T02:51:58.356Z,12.27
2018-08-31T02:54:31.443Z,13.33
2018-08-31T02:57:03.532Z,12.87
2018-08-31T02:59:35.622Z,14.33
2018-08-31T03:02:07.668Z,14.33
2018-08-31T03:04:39.708Z,11.97
2018-08-31T03:07:12.066Z,14.40
2018-08-31T03:09:44.097Z,12.60
2018-08-31T03:12:16.252Z,11.63
2018-08-31T03:14:48.333Z,12.97
2018-08-31T03:17:20.383Z,11.73
2018-08-31T03:19:52.429Z,14.77
2018-08-31T03:22:24.538Z,13.87
2018-08-31T03:24:56.583Z,13.97
2018-08-31T03:27:28.647Z,11.90
2018-08-31T03:30:00.723Z,15.27
2018-08-31T03:32:32.783Z,14.20
2018-08-31T03:35:04.895Z,13.50
2018-08-31T03:37:36.932Z,13.20
2018-08-31T03:40:09.053Z,14.33
2018-08-31T03:42:41.128Z,13.87
2018-08-31T03:45:13.179Z,13.67
2018-08-31T03:47:45.338Z,13.90
2018-08-31T03:50:17.610Z,15.87
2018-08-31T03:52:49.650Z,15.37
2018-08-31T03:55:21.753Z,17.77
2018-08-31T03:57:53.808Z,16.70
2018-08-31T04:00:26.943Z,14.43
2018-08-31T04:02:58.998Z,17.20
2018-08-31T04:05:31.062Z,15.93
2018-08-31T04:08:03.185Z,15.33
2018-08-31T04:10:35.289Z,17.20
2018-08-31T04:13:07.390Z,18.53
2018-08-31T04:15:39.447Z,18.37
2018-08-31T04:18:11.690Z,16.90
2018-08-31T04:20:43.799Z,18.00
2018-08-31T04:23:15.843Z,17.67
2018-08-31T04:25:47.906Z,18.73
2018-08-31T04:28:19.993Z,16.67
2018-08-31T04:30:52.138Z,16.70
2018-08-31T04:33:24.255Z,15.37
2018-08-31T04:36:02.983Z,14.50
2018-08-31T04:38:35.147Z,17.77
2018-08-31T04:41:08.354Z,12.87
2018-08-31T04:43:40.448Z,15.97
2018-08-31T04:46:12.521Z,14.40
2018-08-31T04:48:44.562Z,12.90
2018-08-31T04:51:16.707Z,12.90
2018-08-31T04:53:48.784Z,13.50
2018-08-31T04:56:20.863Z,14.50
2018-08-31T04:58:52.933Z,14.43
2018-08-31T05:01:25.004Z,14.83
2018-08-31T05:03:57.084Z,13.80
2018-08-31T05:06:29.120Z,13.17
2018-08-31T05:09:01.252Z,15.63
2018-08-31T05:11:33.320Z,13.03
2018-08-31T05:14:05.500Z,13.90
2018-08-31T05:16:37.632Z,14.00
2018-08-31T05:19:09.753Z,13.43
2018-08-31T05:21:41.839Z,14.13
2018-08-31T05:24:13.963Z,19.03
2018-08-31T05:26:46.543Z,13.43
2018-08-31T05:29:18.671Z,15.50
2018-08-31T05:31:50.750Z,12.80
2018-08-31T05:34:22.863Z,12.97
2018-08-31T05:36:54.940Z,13.70
2018-08-31T05:39:27.008Z,12.30
2018-08-31T05:41:59.168Z,14.23
2018-08-31T05:44:31.256Z,12.93
2018-08-31T05:47:03.341Z,12.77
2018-08-31T05:49:35.357Z,13.30
2018-08-31T05:52:07.475Z,13.60
2018-08-31T05:54:39.611Z,12.90
2018-08-31T05:57:11.701Z,10.60
2018-08-31T05:59:43.761Z,11.03
2018-08-31T06:02:15.896Z,9.23
2018-08-31T06:04:47.931Z,9.53
2018-08-31T06:07:20.043Z,9.40
2018-08-31T06:09:52.090Z,10.10
2018-08-31T06:12:25.252Z,10.30
2018-08-31T06:14:57.343Z,10.40
2018-08-31T06:17:29.431Z,9.23
2018-08-31T06:20:01.576Z,9.67
2018-08-31T06:22:34.744Z,9.47
2018-08-31T06:25:06.902Z,9.23
2018-08-31T06:27:39.012Z,9.40
2018-08-31T06:30:11.112Z,10.93
2018-08-31T06:32:43.242Z,10.10
2018-08-31T06:35:15.259Z,11.33
2018-08-31T06:37:47.380Z,9.77
2018-08-31T06:40:19.491Z,10.47
2018-08-31T06:42:51.599Z,10.63
2018-08-31T06:45:23.698Z,10.90
2018-08-31T06:47:55.730Z,9.87
2018-08-31T06:50:27.794Z,11.37
2018-08-31T06:52:59.900Z,10.87
2018-08-31T06:55:32.073Z,10.60
2018-08-31T06:58:04.190Z,10.60
2018-08-31T07:00:36.271Z,9.90
2018-08-31T07:03:08.384Z,10.60
2018-08-31T07:05:40.457Z,9.73
2018-08-31T07:08:12.533Z,8.93
2018-08-31T07:10:44.628Z,9.70
2018-08-31T07:13:16.706Z,9.90
2018-08-31T07:15:48.801Z,9.30
2018-08-31T07:18:20.923Z,8.93
2018-08-31T07:20:52.988Z,9.50
2018-08-31T07:23:25.029Z,9.33
2018-08-31T07:25:57.080Z,9.50
2018-08-31T07:28:29.185Z,9.03
2018-08-31T07:31:01.237Z,10.13
2018-08-31T07:33:33.319Z,11.17
2018-08-31T07:36:05.372Z,9.60
2018-08-31T07:38:37.416Z,9.67
2018-08-31T07:41:09.525Z,9.87
2018-08-31T07:43:41.568Z,9.93
2018-08-31T07:46:13.663Z,9.70
2018-08-31T07:48:45.763Z,8.53
2018-08-31T07:51:17.790Z,10.90
2018-08-31T07:53:49.941Z,10.10
2018-08-31T07:56:21.947Z,9.07
2018-08-31T07:58:53.984Z,9.47
2018-08-31T08:01:26.007Z,9.90
2018-08-31T08:03:58.069Z,11.27
2018-08-31T08:06:30.202Z,10.83
2018-08-31T08:09:02.363Z,10.30
2018-08-31T08:11:34.387Z,10.67
2018-08-31T08:14:06.527Z,9.73
2018-08-31T08:16:38.633Z,11.47
2018-08-31T08:19:11.427Z,10.70
2018-08-31T08:21:43.471Z,10.90
2018-08-31T08:24:15.573Z,10.50
2018-08-31T08:26:47.681Z,10.10
2018-08-31T08:29:19.772Z,10.10
2018-08-31T08:31:51.832Z,9.20
2018-08-31T08:34:23.923Z,9.57
2018-08-31T08:36:56.059Z,10.80
2018-08-31T08:39:28.193Z,9.70
2018-08-31T08:42:00.333Z,9.00
2018-08-31T08:44:32.411Z,10.60
2018-08-31T08:47:04.653Z,8.90
2018-08-31T08:49:36.711Z,8.97
2018-08-31T08:52:08.870Z,10.30
2018-08-31T08:54:41.093Z,10.57
2018-08-31T08:57:14.428Z,10.50
2018-08-31T08:59:46.495Z,9.47
2018-08-31T09:02:18.605Z,9.70
2018-08-31T09:04:50.737Z,9.77
2018-08-31T09:07:22.904Z,10.57
2018-08-31T09:09:55.018Z,10.63
2018-08-31T09:12:27.188Z,10.13
2018-08-31T09:14:59.323Z,10.13
2018-08-31T09:17:31.467Z,10.00
2018-08-31T09:20:03.757Z,9.90
2018-08-31T09:22:36.100Z,10.80
2018-08-31T09:25:08.197Z,9.40
2018-08-31T09:27:40.283Z,9.97
2018-08-31T09:30:17.978Z,10.20
2018-08-31T09:32:50.072Z,9.27
2018-08-31T09:35:22.110Z,10.00
2018-08-31T09:37:54.180Z,10.70
2018-08-31T09:40:26.224Z,9.57
2018-08-31T09:42:58.316Z,10.03
2018-08-31T09:45:30.465Z,10.30
2018-08-31T09:48:03.043Z,10.20
2018-08-31T09:50:35.505Z,11.40
2018-08-31T09:53:08.420Z,10.97
2018-08-31T09:55:40.540Z,10.80
2018-08-31T09:58:12.643Z,9.30
2018-08-31T10:00:50.325Z,9.27
2018-08-31T10:03:23.864Z,9.67
2018-08-31T10:05:56.296Z,11.70
2018-08-31T10:08:28.411Z,10.97
2018-08-31T10:11:00.464Z,9.83
2018-08-31T10:13:32.594Z,10.50
2018-08-31T10:16:04.819Z,11.23
2018-08-31T10:18:36.955Z,10.13
2018-08-31T10:21:09.092Z,9.60
2018-08-31T10:23:41.148Z,10.20
2018-08-31T10:26:13.246Z,10.53
2018-08-31T10:28:46.401Z,10.00
2018-08-31T10:31:18.524Z,10.60
2018-08-31T10:33:50.641Z,9.63
2018-08-31T10:36:22.716Z,9.00
2018-08-31T10:38:54.879Z,9.37
2018-08-31T10:41:26.974Z,9.47
2018-08-31T10:43:59.105Z,10.57
2018-08-31T10:46:31.226Z,10.07
2018-08-31T10:49:03.437Z,9.40
2018-08-31T10:51:37.395Z,9.00
2018-08-31T10:54:09.498Z,9.57
2018-08-31T10:56:41.611Z,9.80
2018-08-31T10:59:13.739Z,9.30
2018-08-31T11:01:45.852Z,8.70
2018-08-31T11:04:17.967Z,9.33
2018-08-31T11:06:50.164Z,8.97
2018-08-31T11:09:22.329Z,9.80
2018-08-31T11:11:55.541Z,8.30
2018-08-31T11:14:27.685Z,10.37
2018-08-31T11:16:59.855Z,9.67
2018-08-31T11:19:32.004Z,10.17
2018-08-31T11:22:04.107Z,9.10
2018-08-31T11:24:36.187Z,9.33
2018-08-31T11:27:08.276Z,8.87
2018-08-31T11:29:40.319Z,9.23
2018-08-31T11:32:12.474Z,8.80
2018-08-31T11:34:44.536Z,11.47
2018-08-31T11:37:16.636Z,9.67
2018-08-31T11:39:48.751Z,10.00
2018-08-31T11:42:20.815Z,9.40
2018-08-31T11:44:52.882Z,10.63
2018-08-31T11:47:24.978Z,9.40
2018-08-31T11:49:57.032Z,9.47
2018-08-31T11:52:29.123Z,10.37
2018-08-31T11:55:01.188Z,9.90
2018-08-31T11:57:33.341Z,9.47
2018-08-31T12:00:05.530Z,9.80
2018-08-31T12:02:37.595Z,9.67
2018-08-31T12:05:09.690Z,10.43
2018-08-31T12:07:41.766Z,10.80
2018-08-31T12:10:13.818Z,9.80
2018-08-31T12:12:45.861Z,10.47
2018-08-31T12:15:17.929Z,10.33
2018-08-31T12:17:50.015Z,10.17
2018-08-31T12:20:22.081Z,9.77
2018-08-31T12:22:54.189Z,10.10
2018-08-31T12:25:26.315Z,10.60
2018-08-31T12:27:58.375Z,11.63
2018-08-31T12:30:30.454Z,10.10
2018-08-31T12:33:02.656Z,9.17
2018-08-31T12:35:34.792Z,9.20
2018-08-31T12:38:06.889Z,8.80
2018-08-31T12:40:38.949Z,9.53
2018-08-31T12:43:11.035Z,9.07
2018-08-31T12:45:43.144Z,9.00
2018-08-31T12:48:15.350Z,10.33
2018-08-31T12:50:48.499Z,8.53
2018-08-31T12:53:20.633Z,10.00
2018-08-31T12:55:52.789Z,9.87
2018-08-31T12:58:24.952Z,8.97
2018-08-31T13:00:57.047Z,9.90
2018-08-31T13:03:29.183Z,10.47
2018-08-31T13:06:01.304Z,10.43
2018-08-31T13:08:33.467Z,10.83
2018-08-31T13:11:06.055Z,9.00
2018-08-31T13:13:38.266Z,9.13
2018-08-31T13:16:10.338Z,9.10
2018-08-31T13:18:42.444Z,9.83
2018-08-31T13:21:15.605Z,13.53
2018-08-31T13:23:47.686Z,11.27
2018-08-31T13:26:19.875Z,11.97
2018-08-31T13:28:52.012Z,13.27
2018-08-31T13:31:24.078Z,12.53
2018-08-31T13:33:56.173Z,11.83
2018-08-31T13:36:28.290Z,12.63
2018-08-31T13:39:00.446Z,10.63
2018-08-31T13:41:32.534Z,10.83
2018-08-31T13:44:04.677Z,10.27
2018-08-31T13:46:36.940Z,12.40
2018-08-31T13:49:08.963Z,13.60
2018-08-31T13:51:41.045Z,11.50
2018-08-31T13:54:13.252Z,14.50
2018-08-31T13:56:45.315Z,13.23
2018-08-31T13:59:17.330Z,12.20
2018-08-31T14:01:49.424Z,13.00
2018-08-31T14:04:21.537Z,12.97
2018-08-31T14:06:53.543Z,10.87
2018-08-31T14:09:25.566Z,14.00
2018-08-31T14:11:57.701Z,11.83
2018-08-31T14:14:29.784Z,10.97
2018-08-31T14:17:01.840Z,11.37
2018-08-31T14:19:33.929Z,13.23
2018-08-31T14:22:05.987Z,12.10
2018-08-31T14:24:38.090Z,12.20
2018-08-31T14:27:10.129Z,14.00
2018-08-31T14:29:42.192Z,12.97
2018-08-31T14:32:14.203Z,13.30
2018-08-31T14:34:46.251Z,13.90
2018-08-31T14:37:18.341Z,11.43
2018-08-31T14:39:50.422Z,11.30
2018-08-31T14:42:22.508Z,12.70
2018-08-31T14:44:55.631Z,13.47
2018-08-31T14:47:27.747Z,13.20
2018-08-31T14:49:59.834Z,12.23
2018-08-31T14:52:31.854Z,14.87
2018-08-31T14:55:04.011Z,14.43
2018-08-31T14:57:36.084Z,15.40
2018-08-31T15:00:08.154Z,13.47
2018-08-31T15:02:40.191Z,13.37
2018-08-31T15:05:12.258Z,13.40
2018-08-31T15:07:44.470Z,12.90
2018-08-31T15:10:16.516Z,12.90
2018-08-31T15:12:48.624Z,13.70
2018-08-31T15:15:20.724Z,12.40
2018-08-31T15:17:52.851Z,12.43
2018-08-31T15:20:24.916Z,13.17
2018-08-31T15:22:57.124Z,13.03
2018-08-31T15:25:29.266Z,16.30
2018-08-31T15:28:01.271Z,13.10
2018-08-31T15:30:33.346Z,13.27
2018-08-31T15:33:05.427Z,12.53
2018-08-31T15:35:37.503Z,15.47
2018-08-31T15:38:09.563Z,13.17
2018-08-31T15:40:41.652Z,13.73
2018-08-31T15:43:13.645Z,14.07
2018-08-31T15:45:45.757Z,13.90
2018-08-31T15:48:17.792Z,15.80
2018-08-31T15:50:49.843Z,14.80
2018-08-31T15:53:21.983Z,12.63
2018-08-31T15:55:54.080Z,14.33
2018-08-31T15:58:26.143Z,15.23
2018-08-31T16:00:58.216Z,13.93
2018-08-31T16:03:30.245Z,13.70
2018-08-31T16:06:02.280Z,13.60
2018-08-31T16:08:34.338Z,13.47
2018-08-31T16:11:06.390Z,14.83
2018-08-31T16:13:38.541Z,14.30
2018-08-31T16:16:11.150Z,15.73
2018-08-31T16:18:43.175Z,14.60
2018-08-31T16:21:15.181Z,16.23
2018-08-31T16:23:47.203Z,14.53
2018-08-31T16:26:20.269Z,13.03
2018-08-31T16:28:52.335Z,15.50
2018-08-31T16:31:24.320Z,12.90
2018-08-31T16:33:56.342Z,16.77
2018-08-31T16:36:28.362Z,14.17
2018-08-31T16:39:00.479Z,16.70
2018-08-31T16:41:32.506Z,13.50
2018-08-31T16:44:04.571Z,14.80
2018-08-31T16:46:36.611Z,15.90
2018-08-31T16:49:08.679Z,16.13
2018-08-31T16:51:40.886Z,15.43
2018-08-31T16:54:12.907Z,14.77
2018-08-31T16:56:44.947Z,15.80
2018-08-31T16:59:17.114Z,16.77
2018-08-31T17:01:49.159Z,17.07
2018-08-31T17:04:21.219Z,16.60
2018-08-31T17:06:53.306Z,15.73
2018-08-31T17:09:25.375Z,13.87
2018-08-31T17:11:57.411Z,11.87
2018-08-31T17:14:29.456Z,11.23
2018-08-31T17:17:01.590Z,14.90
2018-08-31T17:19:33.615Z,11.70
2018-08-31T17:22:05.655Z,14.80
2018-08-31T17:24:37.688Z,13.77
2018-08-31T17:27:15.329Z,11.20
2018-08-31T17:29:47.956Z,12.80
2018-08-31T17:32:25.651Z,13.00
2018-08-31T17:35:03.424Z,13.10
2018-08-31T17:37:36.095Z,13.80
2018-08-31T17:40:08.245Z,16.37
2018-08-31T17:42:40.896Z,14.77
2018-08-31T17:45:17.172Z,14.10
2018-08-31T17:47:50.230Z,13.57
2018-08-31T17:50:22.336Z,15.47
2018-08-31T17:52:54.411Z,12.53
2018-08-31T17:55:26.480Z,12.13
2018-08-31T17:57:58.623Z,13.47
2018-08-31T18:00:30.778Z,11.60
2018-08-31T18:03:02.860Z,9.97
2018-08-31T18:05:34.910Z,11.63
2018-08-31T18:08:06.979Z,10.90
2018-08-31T18:10:39.093Z,10.50
2018-08-31T18:13:11.241Z,10.23
2018-08-31T18:15:43.382Z,9.07
2018-08-31T18:18:15.351Z,9.43
2018-08-31T18:20:47.394Z,9.20
2018-08-31T18:23:19.489Z,11.40
2018-08-31T18:25:51.583Z,9.77
2018-08-31T18:28:23.638Z,10.50
2018-08-31T18:30:58.252Z,10.07
2018-08-31T18:33:30.701Z,9.83
2018-08-31T18:36:02.759Z,11.17
2018-08-31T18:38:34.796Z,11.73
2018-08-31T18:41:07.156Z,11.93
2018-08-31T18:43:39.203Z,13.30
2018-08-31T18:46:11.352Z,12.40
2018-08-31T18:48:43.372Z,12.47
2018-08-31T18:51:15.459Z,13.50
2018-08-31T18:53:47.544Z,15.73
2018-08-31T18:56:19.591Z,15.53
2018-08-31T18:58:51.677Z,15.57
2018-08-31T19:01:23.690Z,17.80
2018-08-31T19:03:55.793Z,16.90
2018-08-31T19:06:27.852Z,16.93
2018-08-31T19:08:59.923Z,16.30
2018-08-31T19:11:32.125Z,16.60
2018-08-31T19:14:04.221Z,18.93
2018-08-31T19:16:36.328Z,17.47
2018-08-31T19:19:08.481Z,20.67
2018-08-31T19:21:41.611Z,18.20
2018-08-31T19:24:13.734Z,17.97
2018-08-31T19:26:45.785Z,17.90
2018-08-31T19:29:17.895Z,17.90
2018-08-31T19:31:49.958Z,18.73
2018-08-31T19:34:22.351Z,19.43
2018-08-31T19:36:54.741Z,19.80
2018-08-31T19:39:26.833Z,17.43
2018-08-31T19:42:05.639Z,22.27
2018-08-31T19:44:37.729Z,22.17
2018-08-31T19:47:09.813Z,19.93
2018-08-31T19:49:41.997Z,19.77
2018-08-31T19:52:14.137Z,18.40
2018-08-31T19:54:46.215Z,18.97
2018-08-31T19:57:18.309Z,18.40
2018-08-31T19:59:50.374Z,19.20
2018-08-31T20:02:22.424Z,17.90
2018-08-31T20:04:54.542Z,19.50
2018-08-31T20:07:26.704Z,19.00
2018-08-31T20:09:58.752Z,17.70
2018-08-31T20:12:30.832Z,19.10
2018-08-31T20:15:02.944Z,19.90
2018-08-31T20:17:35.077Z,19.20
2018-08-31T20:20:07.250Z,18.00
2018-08-31T20:22:39.313Z,17.23
2018-08-31T20:25:11.560Z,18.57
2018-08-31T20:27:43.715Z,18.53
2018-08-31T20:30:15.881Z,19.63
2018-08-31T20:32:48.028Z,18.27
2018-08-31T20:35:20.139Z,18.97
2018-08-31T20:37:52.201Z,20.60
2018-08-31T20:40:24.344Z,17.93
2018-08-31T20:42:56.424Z,17.30
2018-08-31T20:45:28.535Z,17.73
2018-08-31T20:48:00.659Z,16.70
2018-08-31T20:50:32.849Z,17.93
2018-08-31T20:53:05.161Z,17.97
2018-08-31T20:55:37.275Z,16.53
2018-08-31T20:58:10.043Z,18.03
2018-08-31T21:00:42.196Z,17.33
2018-08-31T21:03:14.316Z,17.77
2018-08-31T21:05:46.500Z,15.83
2018-08-31T21:08:18.726Z,17.43
2018-08-31T21:10:51.084Z,15.67
2018-08-31T21:13:23.278Z,16.03
2018-08-31T21:15:55.409Z,15.80
2018-08-31T21:18:27.588Z,16.37
2018-08-31T21:20:59.865Z,16.17
2018-08-31T21:23:31.956Z,16.13
2018-08-31T21:26:04.145Z,15.13
2018-08-31T21:28:36.219Z,17.00
2018-08-31T21:31:08.288Z,15.47
2018-08-31T21:33:40.601Z,19.17
2018-08-31T21:36:12.727Z,15.87
2018-08-31T21:38:44.873Z,15.47
2018-08-31T21:41:16.936Z,16.83
2018-08-31T21:43:49.095Z,15.67
2018-08-31T21:46:21.151Z,19.07
2018-08-31T21:48:53.236Z,15.93
2018-08-31T21:51:25.383Z,16.80
2018-08-31T21:53:57.515Z,16.27
2018-08-31T21:56:29.612Z,18.20
2018-08-31T21:59:01.720Z,16.57
2018-08-31T22:01:38.236Z,16.90
2018-08-31T22:04:11.155Z,14.63
2018-08-31T22:06:43.262Z,17.43
2018-08-31T22:09:15.356Z,16.53
2018-08-31T22:11:47.452Z,14.87
2018-08-31T22:14:19.576Z,16.77
2018-08-31T22:16:51.687Z,16.30
2018-08-31T22:19:23.812Z,17.70
2018-08-31T22:21:55.930Z,16.10
2018-08-31T22:24:28.028Z,16.13
2018-08-31T22:27:00.175Z,15.10
2018-08-31T22:29:32.325Z,14.83
2018-08-31T22:32:04.502Z,15.17
2018-08-31T22:34:36.693Z,16.53
2018-08-31T22:37:08.763Z,15.90
2018-08-31T22:39:40.910Z,14.57
2018-08-31T22:42:12.995Z,14.53
2018-08-31T22:44:45.075Z,14.93
2018-08-31T22:47:17.189Z,15.20
2018-08-31T22:49:49.264Z,14.83
2018-08-31T22:52:21.344Z,13.90
2018-08-31T22:54:53.455Z,15.67
2018-08-31T22:57:25.632Z,13.37
2018-08-31T22:59:57.819Z,13.70
2018-08-31T23:02:29.943Z,12.50
2018-08-31T23:05:02.280Z,12.40
2018-08-31T23:07:40.146Z,12.37
2018-08-31T23:10:12.245Z,11.97
2018-08-31T23:12:44.386Z,13.87
2018-08-31T23:15:16.428Z,11.70
2018-08-31T23:17:50.328Z,12.10
2018-08-31T23:20:22.411Z,15.63
2018-08-31T23:23:00.312Z,11.77
2018-08-31T23:25:38.180Z,11.20
2018-08-31T23:28:10.325Z,13.83
2018-08-31T23:30:42.427Z,11.30
2018-08-31T23:33:14.692Z,11.60
2018-08-31T23:35:46.806Z,11.17
2018-08-31T23:38:19.342Z,10.33
2018-08-31T23:40:51.449Z,11.40
2018-08-31T23:43:23.535Z,10.43
2018-08-31T23:45:55.663Z,10.07
2018-08-31T23:48:27.788Z,12.40
2018-08-31T23:50:59.869Z,11.60
2018-08-31T23:53:32.035Z,10.40
2018-08-31T23:56:04.068Z,12.07
2018-08-31T23:58:36.170Z,10.60
